Metar z połowy godziny Komunikat METAR ze strony awiacja.imgw.pl Metar G30 EPMI METAR EPMI 221430Z 26004KT 9999 SCT020 BKN030 12/09 Q1016 RMK 117 084 6/3=